Time;durP1;ratioP1;P1;durP2;ratioP2;P2;SDS_P1;SDS_P2;PMS_P1;PMS_P2;Temp;Humidity;BMP_temperature;BMP_pressure;BME280_temperature;BME280_humidity;BME280_pressure;Samples;Min_cycle;Max_cycle;Signal;HPM_P1;HPM_P2
2022/07/01 00:01:40;;;;;;;22.33;6.13;;;22.80;99.90;;;;;;4923511;29;20052;-46
2022/07/01 00:04:06;;;;;;;22.67;4.72;;;22.80;99.90;;;;;;4925167;29;20031;-47
2022/07/01 00:06:32;;;;;;;18.58;5.32;;;22.70;99.90;;;;;;4926062;29;20035;-47
2022/07/01 00:08:58;;;;;;;16.90;5.05;;;22.70;99.90;;;;;;4923646;29;20419;-47
2022/07/01 00:11:24;;;;;;;14.77;3.97;;;22.60;99.90;;;;;;4915403;29;20111;-47
2022/07/01 00:13:50;;;;;;;29.58;6.63;;;22.70;99.90;;;;;;4916161;29;20446;-49
2022/07/01 00:16:16;;;;;;;13.70;3.90;;;22.70;99.90;;;;;;4930780;29;20272;-48
2022/07/01 00:18:42;;;;;;;17.42;4.80;;;22.70;99.90;;;;;;4915756;29;20060;-48
2022/07/01 00:21:08;;;;;;;21.67;4.47;;;22.70;99.90;;;;;;4914771;29;20251;-46
2022/07/01 00:23:33;;;;;;;19.27;4.80;;;22.60;99.90;;;;;;4916374;29;20035;-46
2022/07/01 00:25:59;;;;;;;19.35;4.00;;;22.60;99.90;;;;;;4925409;29;20035;-47
2022/07/01 00:28:25;;;;;;;20.80;4.10;;;22.60;99.90;;;;;;4924579;29;20032;-46
2022/07/01 00:30:52;;;;;;;17.85;4.38;;;22.60;99.90;;;;;;4911966;29;21090;-46
2022/07/01 00:33:18;;;;;;;21.08;6.40;;;22.60;99.90;;;;;;4915884;29;20052;-46
2022/07/01 00:35:43;;;;;;;20.88;4.40;;;22.60;99.90;;;;;;4918032;29;20070;-48
2022/07/01 00:38:10;;;;;;;11.93;4.45;;;22.60;99.90;;;;;;4922645;29;20056;-48
2022/07/01 00:40:36;;;;;;;20.45;5.65;;;22.50;99.90;;;;;;4925657;29;20054;-49
2022/07/01 00:43:02;;;;;;;21.67;6.50;;;22.60;99.90;;;;;;4913610;29;20479;-46
2022/07/01 00:45:28;;;;;;;23.02;5.07;;;22.60;99.90;;;;;;4913385;29;20036;-47
2022/07/01 00:47:54;;;;;;;18.20;4.60;;;22.60;99.90;;;;;;4915841;29;20482;-48
2022/07/01 00:50:19;;;;;;;16.30;4.53;;;22.60;99.90;;;;;;4914031;29;20055;-46
2022/07/01 00:52:46;;;;;;;22.38;5.28;;;22.60;99.90;;;;;;4915542;29;20032;-47
2022/07/01 00:55:13;;;;;;;24.92;4.63;;;22.60;99.90;;;;;;4914663;29;20027;-46
2022/07/01 00:57:41;;;;;;;24.95;5.45;;;22.50;99.90;;;;;;4915898;29;20478;-46
2022/07/01 01:00:10;;;;;;;15.93;4.43;;;22.50;99.90;;;;;;4944900;23;20074;-43
2022/07/01 01:02:36;;;;;;;20.73;5.18;;;22.50;99.90;;;;;;4946585;29;20043;-42
2022/07/01 01:05:07;;;;;;;20.20;4.47;;;22.50;99.90;;;;;;4944036;29;20019;-43
2022/07/01 01:07:33;;;;;;;22.65;5.30;;;22.40;99.90;;;;;;4943153;29;20109;-43
2022/07/01 01:10:02;;;;;;;23.13;5.07;;;22.50;99.90;;;;;;4948433;28;20015;-42
2022/07/01 01:12:29;;;;;;;23.42;5.50;;;22.50;99.90;;;;;;4947595;29;20039;-42
2022/07/01 01:14:56;;;;;;;23.67;5.40;;;22.40;99.90;;;;;;4949764;29;20493;-42
2022/07/01 01:17:22;;;;;;;20.95;5.10;;;22.40;99.90;;;;;;4950639;28;20031;-42
2022/07/01 01:19:50;;;;;;;15.00;4.30;;;22.40;99.90;;;;;;4948298;28;20031;-43
2022/07/01 01:22:17;;;;;;;16.63;4.30;;;22.40;99.90;;;;;;4952083;28;20047;-43
2022/07/01 01:24:44;;;;;;;18.05;5.72;;;22.30;99.90;;;;;;4953900;28;20023;-43
2022/07/01 01:27:10;;;;;;;15.43;4.32;;;22.40;99.90;;;;;;4950962;28;20028;-43
2022/07/01 01:29:37;;;;;;;19.80;4.95;;;22.40;99.90;;;;;;4948161;28;20035;-44
2022/07/01 01:32:05;;;;;;;31.52;6.13;;;22.50;99.90;;;;;;4953671;28;20103;-43
2022/07/01 01:34:32;;;;;;;16.75;5.65;;;22.50;99.90;;;;;;4953260;29;20028;-43
2022/07/01 01:36:58;;;;;;;23.57;4.63;;;22.60;99.90;;;;;;4953006;28;20485;-43
2022/07/01 01:39:24;;;;;;;19.35;4.10;;;22.60;99.90;;;;;;4953728;28;20270;-43
2022/07/01 01:41:50;;;;;;;15.35;4.80;;;22.60;99.90;;;;;;4953695;29;20407;-43
2022/07/01 01:44:16;;;;;;;17.65;5.05;;;22.70;99.90;;;;;;4953647;29;20082;-43
2022/07/01 01:46:42;;;;;;;15.43;5.53;;;22.70;99.90;;;;;;4953580;29;20035;-43
2022/07/01 01:49:07;;;;;;;18.25;6.22;;;22.60;99.90;;;;;;4953375;29;20046;-43
2022/07/01 01:51:33;;;;;;;23.55;5.53;;;22.70;99.90;;;;;;4953421;29;20473;-43
2022/07/01 01:54:00;;;;;;;22.67;6.28;;;22.70;99.90;;;;;;4953319;29;20078;-44
2022/07/01 01:56:26;;;;;;;16.90;5.97;;;22.70;99.90;;;;;;4953235;29;20536;-43
2022/07/01 01:58:52;;;;;;;21.88;5.72;;;22.80;99.90;;;;;;4953310;29;20488;-44
2022/07/01 02:01:19;;;;;;;19.45;5.00;;;22.70;99.90;;;;;;4953853;29;20046;-44
2022/07/01 02:03:46;;;;;;;20.90;5.47;;;22.80;99.90;;;;;;4953318;29;20027;-43
2022/07/01 02:06:13;;;;;;;14.45;4.30;;;22.80;99.90;;;;;;4952287;29;20261;-43
2022/07/01 02:08:39;;;;;;;18.08;5.10;;;22.70;99.90;;;;;;4953021;29;20519;-43
2022/07/01 02:11:06;;;;;;;17.67;5.32;;;22.70;99.90;;;;;;4952626;29;20039;-43
2022/07/01 02:13:32;;;;;;;17.77;5.35;;;22.70;99.90;;;;;;4951911;28;20020;-43
2022/07/01 02:15:59;;;;;;;18.43;5.20;;;22.60;99.90;;;;;;4951578;29;20401;-43
2022/07/01 02:18:25;;;;;;;22.17;5.28;;;22.60;99.90;;;;;;4950535;29;20023;-43
2022/07/01 02:20:51;;;;;;;16.60;5.28;;;22.60;99.90;;;;;;4951672;28;20509;-43
2022/07/01 02:23:17;;;;;;;21.98;6.63;;;22.50;99.90;;;;;;4951816;28;20039;-43
2022/07/01 02:25:43;;;;;;;18.58;5.97;;;22.50;99.90;;;;;;4952048;28;20039;-43
2022/07/01 02:28:10;;;;;;;20.08;6.45;;;22.50;99.90;;;;;;4952715;28;20027;-43
2022/07/01 02:30:36;;;;;;;17.98;6.50;;;22.50;99.90;;;;;;4953209;29;20042;-43
2022/07/01 02:33:06;;;;;;;19.20;6.43;;;22.50;99.90;;;;;;4953259;28;20151;-43
2022/07/01 02:35:40;;;;;;;24.77;7.03;;;22.60;99.90;;;;;;4953342;28;20050;-43
2022/07/01 02:38:07;;;;;;;30.98;7.88;;;22.60;99.90;;;;;;4952054;29;20031;-43
2022/07/01 02:40:37;;;;;;;23.48;8.45;;;22.60;99.90;;;;;;4953230;28;20035;-43
2022/07/01 02:43:03;;;;;;;22.58;7.95;;;22.50;99.90;;;;;;4953052;28;20043;-43
2022/07/01 02:45:29;;;;;;;23.38;6.70;;;22.50;99.90;;;;;;4953149;28;20024;-44
2022/07/01 02:47:54;;;;;;;21.50;8.27;;;22.50;99.90;;;;;;4953009;28;20118;-43
2022/07/01 02:50:20;;;;;;;16.60;8.02;;;22.60;99.90;;;;;;4953407;28;20055;-43
2022/07/01 02:52:46;;;;;;;20.63;9.43;;;22.60;99.90;;;;;;4953220;28;20058;-43
2022/07/01 02:55:13;;;;;;;20.67;9.65;;;22.60;99.90;;;;;;4951823;29;20030;-43
2022/07/01 02:57:42;;;;;;;24.20;10.00;;;22.60;99.90;;;;;;4953116;28;20027;-43
2022/07/01 03:00:12;;;;;;;37.47;10.85;;;22.60;99.90;;;;;;4964660;23;20485;-45
2022/07/01 03:02:37;;;;;;;22.75;10.55;;;22.50;99.90;;;;;;4933849;29;20075;-46
2022/07/01 03:05:04;;;;;;;29.52;10.20;;;22.50;99.90;;;;;;4933996;29;20051;-46
2022/07/01 03:07:30;;;;;;;22.13;9.70;;;22.60;99.90;;;;;;4933798;29;20054;-46
2022/07/01 03:09:56;;;;;;;30.48;11.00;;;22.60;99.90;;;;;;4933765;29;20024;-47
2022/07/01 03:12:25;;;;;;;17.20;8.90;;;22.50;99.90;;;;;;4934040;29;20115;-47
2022/07/01 03:14:56;;;;;;;22.23;10.55;;;22.60;99.90;;;;;;4933974;29;20028;-47
2022/07/01 03:17:22;;;;;;;29.15;9.40;;;22.50;99.90;;;;;;4933811;29;20036;-48
2022/07/01 03:19:48;;;;;;;19.52;8.00;;;22.50;99.90;;;;;;4933622;29;20107;-46
2022/07/01 03:22:15;;;;;;;27.42;9.95;;;22.60;99.90;;;;;;4933647;29;20094;-46
2022/07/01 03:24:40;;;;;;;23.70;9.13;;;22.60;99.90;;;;;;4933843;29;20063;-47
2022/07/01 03:27:07;;;;;;;20.30;8.13;;;22.60;99.90;;;;;;4933632;29;20115;-47
2022/07/01 03:29:33;;;;;;;20.25;9.52;;;22.60;99.90;;;;;;4933670;29;20026;-47
2022/07/01 03:31:59;;;;;;;22.27;9.57;;;22.60;99.90;;;;;;4933694;29;20035;-47
2022/07/01 03:34:24;;;;;;;18.17;7.80;;;22.60;99.90;;;;;;4932552;29;20032;-47
2022/07/01 03:36:50;;;;;;;23.90;8.77;;;22.60;99.90;;;;;;4933655;29;20114;-47
2022/07/01 03:39:16;;;;;;;20.13;8.13;;;22.60;99.90;;;;;;4933616;29;20052;-47
2022/07/01 03:41:42;;;;;;;23.70;9.23;;;22.60;99.90;;;;;;4933530;29;20055;-46
2022/07/01 03:44:07;;;;;;;14.50;7.72;;;22.60;99.90;;;;;;4932125;29;20134;-46
2022/07/01 03:46:35;;;;;;;18.15;7.90;;;22.60;99.90;;;;;;4936856;29;20024;-47
2022/07/01 03:49:01;;;;;;;20.23;7.68;;;22.60;99.90;;;;;;4936951;29;20027;-47
2022/07/01 03:51:28;;;;;;;19.05;8.18;;;22.60;99.90;;;;;;4936990;29;20038;-47
2022/07/01 03:56:38;;;;;;;20.73;7.00;;;22.60;99.90;;;;;;4936875;29;20559;-47
2022/07/01 03:59:04;;;;;;;21.02;6.80;;;22.60;99.90;;;;;;4937377;29;20102;-47
2022/07/01 04:01:29;;;;;;;17.08;5.85;;;22.60;99.90;;;;;;4937043;29;20490;-47
2022/07/01 04:03:55;;;;;;;24.33;6.38;;;22.60;99.90;;;;;;4936993;29;20394;-47
2022/07/01 04:06:22;;;;;;;23.25;8.52;;;22.70;99.90;;;;;;4936754;29;20439;-45
2022/07/01 04:08:48;;;;;;;23.88;7.75;;;22.70;99.90;;;;;;4936984;29;20045;-46
2022/07/01 04:11:15;;;;;;;23.33;6.75;;;22.60;99.90;;;;;;4936652;29;20038;-46
2022/07/01 04:13:41;;;;;;;21.83;6.93;;;22.70;99.90;;;;;;4936658;29;20083;-46
2022/07/01 04:16:07;;;;;;;24.48;8.25;;;22.60;99.90;;;;;;4936491;29;20031;-47
2022/07/01 04:18:33;;;;;;;17.08;5.95;;;22.70;99.90;;;;;;4936452;29;20012;-47
2022/07/01 04:23:44;;;;;;;17.92;5.82;;;22.70;99.90;;;;;;4936562;29;20561;-47
2022/07/01 04:26:09;;;;;;;15.00;5.30;;;22.80;99.90;;;;;;4936362;29;20052;-47
2022/07/01 04:28:35;;;;;;;14.73;5.93;;;22.90;99.90;;;;;;4936355;29;20462;-47
2022/07/01 04:31:02;;;;;;;21.52;6.20;;;22.80;99.90;;;;;;4936386;29;20020;-47
2022/07/01 04:33:27;;;;;;;16.77;6.25;;;22.90;99.90;;;;;;4936335;29;20036;-48
2022/07/01 04:35:53;;;;;;;15.63;5.70;;;22.90;99.90;;;;;;4936008;29;20488;-46
2022/07/01 04:38:19;;;;;;;23.45;7.18;;;22.90;99.90;;;;;;4934985;29;20409;-46
2022/07/01 04:41:58;;;;;;;16.35;6.90;;;22.90;99.90;;;;;;4936052;29;20020;-46
2022/07/01 04:43:30;;;;;;;20.48;7.95;;;22.90;99.90;;;;;;4935862;29;20497;-46
2022/07/01 04:45:56;;;;;;;21.70;8.38;;;22.90;99.90;;;;;;4936168;29;20031;-46
2022/07/01 04:48:22;;;;;;;24.40;8.60;;;22.80;99.90;;;;;;4935987;29;20020;-46
2022/07/01 04:50:48;;;;;;;26.98;8.15;;;22.80;99.90;;;;;;4935763;29;20031;-46
2022/07/01 04:53:14;;;;;;;27.25;8.95;;;22.90;99.90;;;;;;4935735;29;20051;-46
2022/07/01 04:55:39;;;;;;;27.20;8.65;;;22.90;99.90;;;;;;4935656;29;20036;-46
2022/07/01 04:58:05;;;;;;;18.08;8.27;;;22.90;99.90;;;;;;4934772;29;20019;-45
2022/07/01 05:00:31;;;;;;;21.55;7.93;;;22.80;99.90;;;;;;4935473;29;20514;-47
2022/07/01 05:02:57;;;;;;;15.60;6.45;;;22.80;99.90;;;;;;4935822;29;20449;-46
2022/07/01 05:05:23;;;;;;;22.73;8.40;;;22.80;99.90;;;;;;4935690;29;20032;-46
2022/07/01 05:07:48;;;;;;;15.40;7.05;;;22.80;99.90;;;;;;4935678;29;20032;-46
2022/07/01 05:10:14;;;;;;;19.83;8.73;;;22.80;99.90;;;;;;4935608;29;20027;-45
2022/07/01 05:12:40;;;;;;;20.05;6.50;;;22.90;99.90;;;;;;4935408;29;20028;-46
2022/07/01 05:15:06;;;;;;;23.80;7.18;;;22.90;99.90;;;;;;4935279;29;20063;-45
2022/07/01 05:23:01;;;;;;;20.38;5.82;;;22.90;99.90;;;;;;4935421;29;20402;-47
2022/07/01 05:25:27;;;;;;;16.48;5.68;;;22.90;99.90;;;;;;4934049;29;20027;-47
2022/07/01 05:27:54;;;;;;;16.77;5.80;;;22.80;99.90;;;;;;4935027;29;20035;-47
2022/07/01 05:30:23;;;;;;;19.13;5.60;;;22.90;99.90;;;;;;4935103;29;20028;-47
2022/07/01 05:32:48;;;;;;;16.88;6.35;;;22.90;99.90;;;;;;4934988;29;20023;-47
2022/07/01 05:35:14;;;;;;;18.60;5.90;;;22.90;99.90;;;;;;4935001;29;20489;-47
2022/07/01 05:37:41;;;;;;;18.70;6.07;;;22.80;99.90;;;;;;4935133;29;20027;-46
2022/07/01 05:40:08;;;;;;;30.63;6.90;;;22.80;99.90;;;;;;4934947;29;20031;-47
2022/07/01 05:42:33;;;;;;;18.48;6.70;;;22.80;99.90;;;;;;4934772;29;20063;-46
2022/07/01 05:44:59;;;;;;;21.27;6.47;;;22.80;99.90;;;;;;4935115;29;20445;-47
2022/07/01 05:47:25;;;;;;;39.70;7.13;;;22.80;99.90;;;;;;4933596;29;20118;-46
2022/07/01 05:49:51;;;;;;;19.02;5.80;;;22.80;99.90;;;;;;4934806;29;20031;-47
2022/07/01 05:52:17;;;;;;;19.20;5.28;;;22.80;99.90;;;;;;4934881;29;20062;-46
2022/07/01 05:54:42;;;;;;;19.88;4.85;;;22.80;99.90;;;;;;4934759;29;20048;-46
2022/07/01 05:57:09;;;;;;;16.42;5.57;;;22.90;99.90;;;;;;4934614;29;20055;-47
2022/07/01 05:59:35;;;;;;;15.10;4.40;;;22.90;99.90;;;;;;4934331;29;20070;-47
2022/07/01 06:02:01;;;;;;;22.58;5.43;;;22.90;99.90;;;;;;4935021;29;20044;-47
2022/07/01 06:04:27;;;;;;;16.30;4.57;;;23.00;99.90;;;;;;4934441;29;20482;-46
2022/07/01 06:06:52;;;;;;;17.17;4.28;;;23.10;99.90;;;;;;4934466;29;20035;-47
2022/07/01 06:09:18;;;;;;;16.75;4.93;;;23.10;99.90;;;;;;4934021;29;20019;-47
2022/07/01 06:11:45;;;;;;;15.48;5.90;;;23.10;99.90;;;;;;4934371;29;20036;-46
2022/07/01 06:14:11;;;;;;;18.05;4.65;;;23.10;99.90;;;;;;4934410;29;20035;-47
2022/07/01 06:16:37;;;;;;;17.27;5.18;;;23.20;99.90;;;;;;4934485;29;20043;-46
2022/07/01 06:19:04;;;;;;;13.82;4.65;;;23.20;99.90;;;;;;4934650;29;20016;-47
2022/07/01 06:21:30;;;;;;;24.02;5.38;;;23.20;99.90;;;;;;4934299;29;20477;-47
2022/07/01 06:23:56;;;;;;;16.60;5.32;;;23.20;99.90;;;;;;4934180;29;20043;-46
2022/07/01 06:26:22;;;;;;;21.73;6.30;;;23.20;99.90;;;;;;4934249;29;20019;-49
2022/07/01 06:28:48;;;;;;;24.25;6.40;;;23.20;99.90;;;;;;4934116;29;20039;-49
2022/07/01 06:31:14;;;;;;;15.05;5.55;;;23.20;99.90;;;;;;4932814;29;20383;-48
2022/07/01 06:33:39;;;;;;;21.20;5.30;;;23.20;99.90;;;;;;4934199;29;20135;-48
2022/07/01 06:36:05;;;;;;;14.23;5.43;;;23.30;99.90;;;;;;4933015;29;20414;-46
2022/07/01 06:38:31;;;;;;;22.85;5.85;;;23.30;99.90;;;;;;4933041;29;20114;-46
2022/07/01 06:43:43;;;;;;;19.48;6.32;;;23.40;99.90;;;;;;4934397;29;20034;-47
2022/07/01 06:46:09;;;;;;;17.88;6.60;;;23.40;99.90;;;;;;4933950;29;20485;-47
2022/07/01 06:48:35;;;;;;;15.32;5.47;;;23.40;99.90;;;;;;4934161;29;20058;-47
2022/07/01 06:51:02;;;;;;;21.48;6.65;;;23.50;99.90;;;;;;4934049;29;20028;-47
2022/07/01 06:53:28;;;;;;;19.37;5.77;;;23.50;99.90;;;;;;4933889;29;20032;-47
2022/07/01 06:55:54;;;;;;;20.77;6.10;;;23.50;99.90;;;;;;4933834;29;20059;-47
2022/07/01 06:58:19;;;;;;;18.73;5.25;;;23.60;99.90;;;;;;4933706;29;20491;-47
2022/07/01 07:00:45;;;;;;;14.25;4.50;;;23.70;99.90;;;;;;4933560;29;20075;-47
2022/07/01 07:03:11;;;;;;;18.52;5.18;;;23.70;99.90;;;;;;4933821;29;20028;-47
2022/07/01 07:05:37;;;;;;;15.05;6.43;;;23.80;99.90;;;;;;4933957;29;20024;-47
2022/07/01 07:08:03;;;;;;;22.90;6.15;;;23.80;99.90;;;;;;4934062;29;20055;-47
2022/07/01 07:10:29;;;;;;;23.60;6.65;;;23.80;99.90;;;;;;4933672;29;20392;-48
2022/07/01 07:12:55;;;;;;;16.98;5.80;;;23.90;99.90;;;;;;4933675;29;20023;-47
2022/07/01 07:15:21;;;;;;;13.70;5.00;;;23.90;99.90;;;;;;4933705;29;20024;-47
2022/07/01 07:17:47;;;;;;;15.13;5.75;;;23.90;99.90;;;;;;4933767;29;20063;-47
2022/07/01 07:20:12;;;;;;;15.70;5.57;;;23.90;99.90;;;;;;4935102;29;20027;-46
2022/07/01 07:22:38;;;;;;;14.80;6.50;;;24.00;99.90;;;;;;4937382;29;20042;-47
2022/07/01 07:25:04;;;;;;;18.67;6.47;;;24.00;99.90;;;;;;4937439;29;20023;-47
2022/07/01 07:27:30;;;;;;;19.40;6.85;;;24.10;99.90;;;;;;4937267;29;20020;-46
2022/07/01 07:29:56;;;;;;;21.75;5.57;;;24.10;99.90;;;;;;4935897;29;20119;-47
2022/07/01 07:32:22;;;;;;;18.02;5.95;;;24.10;99.90;;;;;;4937263;29;20027;-47
2022/07/01 07:34:47;;;;;;;15.70;6.07;;;24.10;99.90;;;;;;4937188;29;20042;-47
2022/07/01 07:37:13;;;;;;;18.73;5.63;;;24.10;99.90;;;;;;4937039;29;20059;-47
2022/07/01 07:39:39;;;;;;;19.35;5.28;;;24.20;99.90;;;;;;4937050;29;20426;-47
2022/07/01 07:42:05;;;;;;;16.38;6.25;;;24.20;99.90;;;;;;4935819;29;20046;-47
2022/07/01 07:44:31;;;;;;;22.45;6.15;;;24.20;99.90;;;;;;4936974;29;20035;-46
2022/07/01 07:46:57;;;;;;;20.92;5.38;;;24.20;99.90;;;;;;4936951;29;20031;-46
2022/07/01 07:49:24;;;;;;;21.83;5.65;;;24.10;99.90;;;;;;4936928;29;20035;-48
2022/07/01 07:51:50;;;;;;;17.50;5.50;;;24.20;99.90;;;;;;4936966;29;20477;-47
2022/07/01 07:54:16;;;;;;;16.80;5.15;;;24.20;99.90;;;;;;4936884;29;20119;-47
2022/07/01 07:56:42;;;;;;;17.67;6.05;;;24.20;99.90;;;;;;4935409;29;20139;-47
2022/07/01 07:59:07;;;;;;;18.70;5.53;;;24.30;99.90;;;;;;4936918;29;20038;-47
2022/07/01 08:01:33;;;;;;;24.05;7.90;;;24.20;99.90;;;;;;4936394;29;20051;-47
2022/07/01 08:03:59;;;;;;;12.32;4.63;;;24.30;99.90;;;;;;4936656;29;20031;-48
2022/07/01 08:06:25;;;;;;;22.55;5.57;;;24.30;99.90;;;;;;4936731;29;20047;-48
2022/07/01 08:08:50;;;;;;;15.38;4.75;;;24.30;99.90;;;;;;4936954;29;20111;-48
2022/07/01 08:11:17;;;;;;;19.08;5.75;;;24.40;99.90;;;;;;4936714;29;20099;-49
2022/07/01 08:13:43;;;;;;;18.15;5.60;;;24.40;99.90;;;;;;4936404;29;20032;-47
2022/07/01 08:16:09;;;;;;;15.63;4.75;;;24.40;99.90;;;;;;4936847;29;20023;-50
2022/07/01 08:18:35;;;;;;;14.77;5.63;;;24.50;99.90;;;;;;4936495;29;20048;-47
2022/07/01 08:21:01;;;;;;;14.80;5.50;;;24.50;99.90;;;;;;4936392;29;20039;-53
2022/07/01 08:23:27;;;;;;;14.70;4.57;;;24.50;99.90;;;;;;4936195;29;20375;-47
2022/07/01 08:25:53;;;;;;;14.88;4.65;;;24.50;99.90;;;;;;4936248;29;20375;-48
2022/07/01 08:28:18;;;;;;;18.17;4.65;;;24.60;99.90;;;;;;4936235;29;20110;-49
2022/07/01 08:30:44;;;;;;;13.65;4.45;;;24.60;99.90;;;;;;4935862;29;20163;-48
2022/07/01 08:33:10;;;;;;;14.32;5.10;;;24.70;99.90;;;;;;4936469;29;20135;-49
2022/07/01 08:35:37;;;;;;;16.90;5.35;;;24.70;99.90;;;;;;4935007;29;20143;-50
2022/07/01 08:38:03;;;;;;;18.17;4.90;;;24.80;99.90;;;;;;4936173;29;20046;-49
2022/07/01 08:40:30;;;;;;;18.47;5.63;;;24.80;99.90;;;;;;4936072;29;20026;-50
2022/07/01 08:43:04;;;;;;;10.30;3.70;;;24.90;99.90;;;;;;4935964;29;20036;-49
2022/07/01 08:45:33;;;;;;;17.27;4.47;;;24.90;99.90;;;;;;4935907;29;20505;-49
2022/07/01 08:48:03;;;;;;;17.73;5.07;;;25.00;99.90;;;;;;4935832;29;20032;-49
2022/07/01 08:50:30;;;;;;;18.92;4.95;;;25.00;99.90;;;;;;4935735;29;20048;-49
2022/07/01 08:52:57;;;;;;;17.98;4.65;;;25.10;99.90;;;;;;4936048;29;20115;-50
2022/07/01 08:55:24;;;;;;;20.67;4.60;;;25.10;99.90;;;;;;4935749;29;20039;-47
2022/07/01 08:57:50;;;;;;;21.38;5.28;;;25.10;99.90;;;;;;4934389;29;20023;-47
2022/07/01 09:00:17;;;;;;;29.27;9.13;;;25.20;99.90;;;;;;4935501;29;20131;-47
2022/07/01 09:02:51;;;;;;;23.93;5.57;;;25.20;99.90;;;;;;4935578;29;20043;-48
2022/07/01 09:05:18;;;;;;;13.30;4.18;;;25.30;99.90;;;;;;4935279;29;20028;-47
2022/07/01 09:07:44;;;;;;;19.65;4.65;;;25.30;99.90;;;;;;4935347;29;20505;-47
2022/07/01 09:10:20;;;;;;;14.90;4.05;;;25.30;99.90;;;;;;4935585;29;20039;-48
2022/07/01 09:12:47;;;;;;;20.63;4.65;;;25.30;99.90;;;;;;4935133;29;20031;-48
2022/07/01 09:15:26;;;;;;;15.70;4.75;;;25.30;99.90;;;;;;4935658;29;20144;-48
2022/07/01 09:18:12;;;;;;;18.30;4.85;;;25.30;99.90;;;;;;4935093;29;20447;-47
2022/07/01 09:20:41;;;;;;;16.45;4.78;;;25.40;99.90;;;;;;4935250;29;20097;-48
2022/07/01 09:23:11;;;;;;;18.02;5.00;;;25.40;99.90;;;;;;4933831;29;20043;-48
2022/07/01 09:25:43;;;;;;;17.60;4.75;;;25.40;99.90;;;;;;4934918;29;20031;-47
2022/07/01 09:28:10;;;;;;;18.92;4.72;;;25.40;99.90;;;;;;4935064;29;20490;-48
2022/07/01 09:30:37;;;;;;;15.93;4.82;;;25.40;99.90;;;;;;4935343;29;20028;-48
2022/07/01 09:33:12;;;;;;;16.63;4.15;;;25.50;99.90;;;;;;4933917;29;20430;-49
2022/07/01 09:35:38;;;;;;;14.85;4.70;;;25.50;99.90;;;;;;4927418;29;20115;-48
2022/07/01 09:38:05;;;;;;;26.27;4.30;;;25.50;99.90;;;;;;4920353;29;20482;-48
2022/07/01 09:40:50;;;;;;;19.20;5.25;;;25.50;99.90;;;;;;4923608;29;20170;-48
2022/07/01 09:43:31;;;;;;;16.30;5.68;;;25.60;99.90;;;;;;4924985;29;20040;-48
2022/07/01 09:46:08;;;;;;;15.93;5.10;;;25.60;99.90;;;;;;4919492;29;20052;-47
2022/07/01 09:48:33;;;;;;;16.73;5.07;;;25.60;99.90;;;;;;4924994;29;20016;-48
2022/07/01 09:51:01;;;;;;;20.20;5.43;;;25.60;99.90;;;;;;4925145;29;20442;-48
2022/07/01 09:53:27;;;;;;;14.43;4.78;;;25.70;99.90;;;;;;4923681;29;20489;-47
2022/07/01 09:55:53;;;;;;;16.05;4.82;;;25.70;99.90;;;;;;4925004;29;20062;-48
2022/07/01 09:58:19;;;;;;;11.02;4.30;;;25.70;99.90;;;;;;4923932;29;20063;-48
2022/07/01 10:00:45;;;;;;;16.48;4.78;;;25.70;99.90;;;;;;4939024;29;20463;-48
2022/07/01 10:03:13;;;;;;;17.50;5.38;;;25.70;99.90;;;;;;4917924;29;20079;-47
2022/07/01 10:05:53;;;;;;;16.73;5.15;;;25.70;99.90;;;;;;4916218;29;20058;-48
2022/07/01 10:08:46;;;;;;;12.32;5.30;;;25.70;99.90;;;;;;4926761;29;20046;-48
2022/07/01 10:11:43;;;;;;;27.40;7.55;;;25.80;99.90;;;;;;4924916;29;20114;-49
2022/07/01 10:14:12;;;;;;;18.55;5.68;;;25.80;99.90;;;;;;4920958;29;20031;-50
2022/07/01 10:16:38;;;;;;;18.77;6.75;;;25.80;99.90;;;;;;4923214;29;20039;-50
2022/07/01 10:19:24;;;;;;;16.55;5.38;;;25.80;99.90;;;;;;4923246;29;20027;-50
2022/07/01 10:21:52;;;;;;;13.55;5.88;;;25.90;99.90;;;;;;4924296;29;20438;-49
2022/07/01 10:24:18;;;;;;;13.10;5.65;;;25.90;99.90;;;;;;4924613;29;20039;-49
2022/07/01 10:26:45;;;;;;;12.23;5.57;;;25.80;99.90;;;;;;4925021;29;20047;-49
2022/07/01 10:29:33;;;;;;;19.58;7.53;;;25.90;99.90;;;;;;4925100;29;20355;-49
2022/07/01 10:32:08;;;;;;;13.45;6.05;;;25.80;99.90;;;;;;4926017;29;20490;-50
2022/07/01 10:34:37;;;;;;;12.82;5.50;;;25.80;99.90;;;;;;4919324;29;20020;-49
2022/07/01 10:37:08;;;;;;;16.02;6.20;;;25.70;99.90;;;;;;4938429;29;20035;-49
2022/07/01 10:39:57;;;;;;;11.50;5.88;;;25.70;99.90;;;;;;4929395;29;20031;-50
2022/07/01 10:42:29;;;;;;;15.05;6.07;;;25.70;99.90;;;;;;4931319;29;20489;-49
2022/07/01 10:45:12;;;;;;;16.58;6.35;;;25.70;99.90;;;;;;4926394;29;20042;-49
2022/07/01 10:47:39;;;;;;;10.88;5.75;;;25.60;99.90;;;;;;4930845;29;20031;-48
2022/07/01 10:50:05;;;;;;;14.25;6.60;;;25.60;99.90;;;;;;4931856;29;20060;-49
2022/07/01 10:52:33;;;;;;;13.10;6.50;;;25.60;99.90;;;;;;4931727;29;20031;-49
2022/07/01 10:55:00;;;;;;;10.05;6.18;;;25.60;99.90;;;;;;4935505;29;20027;-49
2022/07/01 10:57:39;;;;;;;;;;;25.50;99.90;;;;;;4937491;29;20035;-49
2022/07/01 11:00:05;;;;;;;15.00;7.53;;;25.50;99.90;;;;;;4953139;29;19915;-49
2022/07/01 11:02:36;;;;;;;16.73;6.70;;;25.50;99.90;;;;;;4939359;28;20067;-49
2022/07/01 11:05:12;;;;;;;12.65;5.90;;;25.50;99.90;;;;;;4937388;29;20035;-48
2022/07/01 11:07:47;;;;;;;9.07;5.70;;;25.40;99.90;;;;;;4937373;29;20810;-49
2022/07/01 11:10:16;;;;;;;14.95;6.38;;;25.50;99.90;;;;;;4937257;29;20478;-48
2022/07/01 11:12:48;;;;;;;13.68;5.65;;;25.50;99.90;;;;;;4946385;29;20370;-49
2022/07/01 11:15:15;;;;;;;10.38;6.25;;;25.60;99.90;;;;;;4937022;28;20478;-49
2022/07/01 11:17:48;;;;;;;13.75;6.75;;;25.60;99.90;;;;;;4936962;29;21365;-49
2022/07/01 11:20:14;;;;;;;14.45;7.65;;;25.60;99.90;;;;;;4937013;29;20025;-49
2022/07/01 11:22:40;;;;;;;12.60;6.15;;;25.60;99.90;;;;;;4936497;29;20042;-49
2022/07/01 11:25:10;;;;;;;14.63;6.95;;;25.60;99.90;;;;;;4936797;29;20474;-49
2022/07/01 11:27:38;;;;;;;12.40;7.00;;;25.50;99.90;;;;;;4936730;29;20050;-49
2022/07/01 11:30:08;;;;;;;22.95;7.72;;;25.40;99.90;;;;;;4932260;29;20401;-50
2022/07/01 11:32:37;;;;;;;11.95;7.07;;;25.40;99.90;;;;;;4931586;29;20070;-49
2022/07/01 11:39:21;;;;;;;18.73;7.70;;;25.50;99.90;;;;;;4933420;29;20024;-50
2022/07/01 11:40:54;;;;;;;11.07;5.93;;;25.60;99.90;;;;;;4936283;29;20488;-50
2022/07/01 11:43:22;;;;;;;15.65;7.88;;;25.60;99.90;;;;;;4936012;29;20040;-50
2022/07/01 11:45:48;;;;;;;14.57;7.10;;;25.60;99.90;;;;;;4916264;29;20024;-49
2022/07/01 11:48:32;;;;;;;16.17;6.45;;;25.60;99.90;;;;;;4932467;29;20223;-49
2022/07/01 11:50:58;;;;;;;15.05;7.72;;;25.60;99.90;;;;;;4930370;29;20023;-46
2022/07/01 11:53:25;;;;;;;15.70;6.88;;;25.60;99.90;;;;;;4925867;29;20051;-45
2022/07/01 11:55:51;;;;;;;14.50;8.52;;;25.70;99.90;;;;;;4930397;29;20042;-45
2022/07/01 11:58:17;;;;;;;17.63;9.00;;;25.80;99.90;;;;;;4933986;29;20026;-46
2022/07/01 12:00:43;;;;;;;21.20;9.25;;;25.80;99.90;;;;;;4933183;29;20052;-46
2022/07/01 12:03:09;;;;;;;19.83;8.57;;;25.80;99.90;;;;;;4935650;28;20047;-45
2022/07/01 12:05:36;;;;;;;17.88;7.90;;;25.90;99.90;;;;;;4931951;29;20034;-46
2022/07/01 12:08:02;;;;;;;16.45;6.88;;;25.90;99.90;;;;;;4931134;29;20504;-46
2022/07/01 12:10:29;;;;;;;17.00;7.82;;;25.80;99.90;;;;;;4928479;29;20032;-46
2022/07/01 12:12:55;;;;;;;14.40;7.43;;;25.90;99.90;;;;;;4932296;29;20026;-46
2022/07/01 12:15:21;;;;;;;21.60;8.35;;;26.00;99.90;;;;;;4934922;29;20027;-46
2022/07/01 12:17:47;;;;;;;15.00;6.78;;;26.10;99.90;;;;;;4935717;29;20080;-45
2022/07/01 12:20:13;;;;;;;18.73;7.85;;;26.10;99.90;;;;;;4946346;29;20119;-46
2022/07/01 12:22:38;;;;;;;17.95;7.30;;;26.10;99.90;;;;;;4935976;29;20474;-45
2022/07/01 12:25:06;;;;;;;19.45;8.05;;;26.00;99.90;;;;;;4945866;29;20427;-45
2022/07/01 12:27:34;;;;;;;15.55;6.70;;;26.00;99.90;;;;;;4935276;29;20027;-45
2022/07/01 12:30:00;;;;;;;18.15;8.07;;;26.00;99.90;;;;;;4934125;29;20064;-45
2022/07/01 12:32:28;;;;;;;16.80;8.27;;;26.00;99.90;;;;;;4935394;29;20027;-45
2022/07/01 12:34:55;;;;;;;15.65;8.43;;;26.10;99.90;;;;;;4934847;29;20015;-47
2022/07/01 12:37:35;;;;;;;14.90;7.80;;;26.00;99.90;;;;;;4935346;29;20462;-45
2022/07/01 12:40:06;;;;;;;14.48;7.95;;;26.00;99.90;;;;;;4945973;29;20151;-45
2022/07/01 12:42:33;;;;;;;17.75;8.10;;;26.00;99.90;;;;;;4927891;29;20125;-46
2022/07/01 12:45:02;;;;;;;16.90;7.40;;;26.00;99.90;;;;;;4930484;29;20390;-46
2022/07/01 12:47:39;;;;;;;21.38;8.38;;;26.00;99.90;;;;;;4935016;29;20024;-46
2022/07/01 12:50:14;;;;;;;14.25;6.22;;;26.20;99.90;;;;;;4931057;29;20039;-45
2022/07/01 12:52:42;;;;;;;18.67;7.53;;;26.20;99.90;;;;;;4932559;29;20487;-46
2022/07/01 12:55:20;;;;;;;16.60;7.03;;;26.10;99.90;;;;;;4930841;29;20040;-45
2022/07/01 12:58:00;;;;;;;11.27;5.95;;;26.10;99.90;;;;;;4931707;29;20028;-46